sensor_id;sensor_type;location;lat;lon;timestamp;P1;durP1;ratioP1;P2;durP2;ratioP2
6638;SDS011;3355;52.882;8.430;2023-04-01T00:01:55;8.57;;;7.23;;
6638;SDS011;3355;52.882;8.430;2023-04-01T00:04:22;6.87;;;6.10;;
6638;SDS011;3355;52.882;8.430;2023-04-01T00:06:49;8.10;;;7.00;;
6638;SDS011;3355;52.882;8.430;2023-04-01T00:09:16;7.67;;;6.97;;
6638;SDS011;3355;52.882;8.430;2023-04-01T00:11:43;8.03;;;6.50;;
6638;SDS011;3355;52.882;8.430;2023-04-01T00:14:10;8.70;;;6.40;;
6638;SDS011;3355;52.882;8.430;2023-04-01T00:16:39;9.57;;;7.30;;
6638;SDS011;3355;52.882;8.430;2023-04-01T00:19:06;8.23;;;7.40;;
6638;SDS011;3355;52.882;8.430;2023-04-01T00:21:33;8.07;;;7.27;;
6638;SDS011;3355;52.882;8.430;2023-04-01T00:23:59;9.60;;;7.63;;
6638;SDS011;3355;52.882;8.430;2023-04-01T00:26:26;9.33;;;7.40;;
6638;SDS011;3355;52.882;8.430;2023-04-01T00:28:53;8.97;;;7.27;;
6638;SDS011;3355;52.882;8.430;2023-04-01T00:31:20;8.13;;;7.33;;
6638;SDS011;3355;52.882;8.430;2023-04-01T00:33:48;10.90;;;7.37;;
6638;SDS011;3355;52.882;8.430;2023-04-01T00:36:16;12.13;;;8.30;;
6638;SDS011;3355;52.882;8.430;2023-04-01T00:38:44;8.80;;;7.57;;
6638;SDS011;3355;52.882;8.430;2023-04-01T00:41:12;10.30;;;7.50;;
6638;SDS011;3355;52.882;8.430;2023-04-01T00:43:40;10.10;;;9.03;;
6638;SDS011;3355;52.882;8.430;2023-04-01T00:46:07;9.63;;;7.63;;
6638;SDS011;3355;52.882;8.430;2023-04-01T00:48:34;8.57;;;7.73;;
6638;SDS011;3355;52.882;8.430;2023-04-01T00:51:05;8.23;;;7.33;;
6638;SDS011;3355;52.882;8.430;2023-04-01T00:53:34;8.40;;;7.50;;
6638;SDS011;3355;52.882;8.430;2023-04-01T00:56:04;11.60;;;8.33;;
6638;SDS011;3355;52.882;8.430;2023-04-01T00:58:33;7.93;;;7.13;;
6638;SDS011;3355;52.882;8.430;2023-04-01T01:01:02;8.17;;;7.03;;
6638;SDS011;3355;52.882;8.430;2023-04-01T01:03:29;9.20;;;7.30;;
6638;SDS011;3355;52.882;8.430;2023-04-01T01:09:02;9.80;;;7.00;;
6638;SDS011;3355;52.882;8.430;2023-04-01T01:11:35;9.00;;;7.30;;
6638;SDS011;3355;52.882;8.430;2023-04-01T01:14:06;10.00;;;7.17;;
6638;SDS011;3355;52.882;8.430;2023-04-01T01:16:39;9.60;;;7.33;;
6638;SDS011;3355;52.882;8.430;2023-04-01T01:19:11;8.53;;;7.47;;
6638;SDS011;3355;52.882;8.430;2023-04-01T01:21:50;8.13;;;6.87;;
6638;SDS011;3355;52.882;8.430;2023-04-01T01:27:11;9.40;;;7.43;;
6638;SDS011;3355;52.882;8.430;2023-04-01T01:29:45;9.60;;;7.37;;
6638;SDS011;3355;52.882;8.430;2023-04-01T01:32:38;9.57;;;6.80;;
6638;SDS011;3355;52.882;8.430;2023-04-01T01:35:16;8.00;;;7.20;;
6638;SDS011;3355;52.882;8.430;2023-04-01T01:37:46;9.23;;;6.43;;
6638;SDS011;3355;52.882;8.430;2023-04-01T01:40:17;9.93;;;7.60;;
6638;SDS011;3355;52.882;8.430;2023-04-01T01:42:45;9.60;;;7.70;;
6638;SDS011;3355;52.882;8.430;2023-04-01T01:45:14;9.20;;;7.10;;
6638;SDS011;3355;52.882;8.430;2023-04-01T01:47:42;8.80;;;7.90;;
6638;SDS011;3355;52.882;8.430;2023-04-01T01:50:10;7.53;;;6.57;;
6638;SDS011;3355;52.882;8.430;2023-04-01T01:52:39;8.43;;;7.37;;
6638;SDS011;3355;52.882;8.430;2023-04-01T01:57:52;9.50;;;7.13;;
6638;SDS011;3355;52.882;8.430;2023-04-01T02:00:19;11.10;;;8.13;;
6638;SDS011;3355;52.882;8.430;2023-04-01T02:02:46;9.00;;;7.37;;
6638;SDS011;3355;52.882;8.430;2023-04-01T02:05:15;9.97;;;7.90;;
6638;SDS011;3355;52.882;8.430;2023-04-01T02:07:46;8.30;;;7.50;;
6638;SDS011;3355;52.882;8.430;2023-04-01T02:10:19;9.13;;;7.30;;
6638;SDS011;3355;52.882;8.430;2023-04-01T02:12:47;8.43;;;7.57;;
6638;SDS011;3355;52.882;8.430;2023-04-01T02:15:16;8.10;;;7.30;;
6638;SDS011;3355;52.882;8.430;2023-04-01T02:17:45;10.07;;;7.63;;
6638;SDS011;3355;52.882;8.430;2023-04-01T02:20:14;7.63;;;6.83;;
6638;SDS011;3355;52.882;8.430;2023-04-01T02:22:50;9.63;;;7.50;;
6638;SDS011;3355;52.882;8.430;2023-04-01T02:25:20;9.83;;;7.90;;
6638;SDS011;3355;52.882;8.430;2023-04-01T02:27:50;9.23;;;7.37;;
6638;SDS011;3355;52.882;8.430;2023-04-01T02:30:16;8.90;;;7.53;;
6638;SDS011;3355;52.882;8.430;2023-04-01T02:32:44;7.37;;;6.63;;
6638;SDS011;3355;52.882;8.430;2023-04-01T02:35:12;8.37;;;6.17;;
6638;SDS011;3355;52.882;8.430;2023-04-01T02:37:40;8.90;;;6.97;;
6638;SDS011;3355;52.882;8.430;2023-04-01T02:40:12;10.17;;;7.33;;
6638;SDS011;3355;52.882;8.430;2023-04-01T02:42:40;9.73;;;7.80;;
6638;SDS011;3355;52.882;8.430;2023-04-01T02:45:07;7.73;;;6.93;;
6638;SDS011;3355;52.882;8.430;2023-04-01T02:47:35;9.20;;;7.57;;
6638;SDS011;3355;52.882;8.430;2023-04-01T02:50:03;10.13;;;7.33;;
6638;SDS011;3355;52.882;8.430;2023-04-01T02:52:31;8.53;;;7.07;;
6638;SDS011;3355;52.882;8.430;2023-04-01T02:54:58;7.63;;;6.70;;
6638;SDS011;3355;52.882;8.430;2023-04-01T02:57:27;8.03;;;6.73;;
6638;SDS011;3355;52.882;8.430;2023-04-01T02:59:54;8.70;;;6.40;;
6638;SDS011;3355;52.882;8.430;2023-04-01T03:02:20;10.53;;;7.20;;
6638;SDS011;3355;52.882;8.430;2023-04-01T03:04:47;8.40;;;6.80;;
6638;SDS011;3355;52.882;8.430;2023-04-01T03:07:14;7.43;;;6.33;;
6638;SDS011;3355;52.882;8.430;2023-04-01T03:09:41;8.17;;;6.03;;
6638;SDS011;3355;52.882;8.430;2023-04-01T03:12:08;7.50;;;6.03;;
6638;SDS011;3355;52.882;8.430;2023-04-01T03:14:37;6.80;;;5.90;;
6638;SDS011;3355;52.882;8.430;2023-04-01T03:17:04;12.37;;;6.43;;
6638;SDS011;3355;52.882;8.430;2023-04-01T03:19:31;6.80;;;5.43;;
6638;SDS011;3355;52.882;8.430;2023-04-01T03:21:58;8.23;;;6.03;;
6638;SDS011;3355;52.882;8.430;2023-04-01T03:24:25;8.20;;;6.60;;
6638;SDS011;3355;52.882;8.430;2023-04-01T03:26:52;8.13;;;6.40;;
6638;SDS011;3355;52.882;8.430;2023-04-01T03:29:19;7.13;;;6.10;;
6638;SDS011;3355;52.882;8.430;2023-04-01T03:31:47;9.73;;;7.47;;
6638;SDS011;3355;52.882;8.430;2023-04-01T03:34:13;6.27;;;5.47;;
6638;SDS011;3355;52.882;8.430;2023-04-01T03:36:40;12.60;;;6.80;;
6638;SDS011;3355;52.882;8.430;2023-04-01T03:39:07;7.60;;;6.10;;
6638;SDS011;3355;52.882;8.430;2023-04-01T03:41:36;9.83;;;6.90;;
6638;SDS011;3355;52.882;8.430;2023-04-01T03:44:03;7.60;;;6.37;;
6638;SDS011;3355;52.882;8.430;2023-04-01T03:46:30;8.43;;;6.20;;
6638;SDS011;3355;52.882;8.430;2023-04-01T03:48:58;9.37;;;6.80;;
6638;SDS011;3355;52.882;8.430;2023-04-01T03:51:25;6.80;;;5.37;;
6638;SDS011;3355;52.882;8.430;2023-04-01T03:53:51;6.30;;;5.70;;
6638;SDS011;3355;52.882;8.430;2023-04-01T03:56:18;7.10;;;4.80;;
6638;SDS011;3355;52.882;8.430;2023-04-01T03:58:45;7.10;;;5.53;;
6638;SDS011;3355;52.882;8.430;2023-04-01T04:01:16;6.10;;;5.27;;
6638;SDS011;3355;52.882;8.430;2023-04-01T04:03:43;5.20;;;4.70;;
6638;SDS011;3355;52.882;8.430;2023-04-01T04:06:12;6.53;;;5.80;;
6638;SDS011;3355;52.882;8.430;2023-04-01T04:08:40;6.03;;;5.10;;
6638;SDS011;3355;52.882;8.430;2023-04-01T04:11:07;5.40;;;4.60;;
6638;SDS011;3355;52.882;8.430;2023-04-01T04:13:34;7.00;;;5.33;;
6638;SDS011;3355;52.882;8.430;2023-04-01T04:16:00;5.20;;;4.70;;
6638;SDS011;3355;52.882;8.430;2023-04-01T04:18:27;5.63;;;4.70;;
6638;SDS011;3355;52.882;8.430;2023-04-01T04:20:54;5.50;;;4.40;;
6638;SDS011;3355;52.882;8.430;2023-04-01T04:23:24;5.40;;;4.53;;
6638;SDS011;3355;52.882;8.430;2023-04-01T04:25:56;5.60;;;4.40;;
6638;SDS011;3355;52.882;8.430;2023-04-01T04:28:23;5.37;;;4.83;;
6638;SDS011;3355;52.882;8.430;2023-04-01T04:30:58;5.13;;;4.60;;
6638;SDS011;3355;52.882;8.430;2023-04-01T04:33:26;4.93;;;4.23;;
6638;SDS011;3355;52.882;8.430;2023-04-01T04:35:54;4.63;;;3.87;;
6638;SDS011;3355;52.882;8.430;2023-04-01T04:38:24;4.87;;;4.37;;
6638;SDS011;3355;52.882;8.430;2023-04-01T04:40:52;5.13;;;3.97;;
6638;SDS011;3355;52.882;8.430;2023-04-01T04:43:19;5.00;;;3.87;;
6638;SDS011;3355;52.882;8.430;2023-04-01T04:45:46;6.03;;;4.33;;
6638;SDS011;3355;52.882;8.430;2023-04-01T04:48:24;5.07;;;4.57;;
6638;SDS011;3355;52.882;8.430;2023-04-01T04:50:51;4.40;;;3.50;;
6638;SDS011;3355;52.882;8.430;2023-04-01T04:53:18;7.13;;;3.80;;
6638;SDS011;3355;52.882;8.430;2023-04-01T04:55:47;8.07;;;3.63;;
6638;SDS011;3355;52.882;8.430;2023-04-01T04:58:14;4.53;;;3.87;;
6638;SDS011;3355;52.882;8.430;2023-04-01T05:00:42;6.10;;;4.13;;
6638;SDS011;3355;52.882;8.430;2023-04-01T05:03:12;7.43;;;3.97;;
6638;SDS011;3355;52.882;8.430;2023-04-01T05:05:39;4.53;;;4.13;;
6638;SDS011;3355;52.882;8.430;2023-04-01T05:08:14;5.13;;;3.70;;
6638;SDS011;3355;52.882;8.430;2023-04-01T05:10:41;4.30;;;3.90;;
6638;SDS011;3355;52.882;8.430;2023-04-01T05:13:09;4.37;;;3.43;;
6638;SDS011;3355;52.882;8.430;2023-04-01T05:15:36;6.30;;;4.30;;
6638;SDS011;3355;52.882;8.430;2023-04-01T05:18:03;4.07;;;3.67;;
6638;SDS011;3355;52.882;8.430;2023-04-01T05:20:30;4.60;;;3.20;;
6638;SDS011;3355;52.882;8.430;2023-04-01T05:22:56;5.33;;;3.53;;
6638;SDS011;3355;52.882;8.430;2023-04-01T05:25:26;5.67;;;4.10;;
6638;SDS011;3355;52.882;8.430;2023-04-01T05:27:53;5.27;;;3.63;;
6638;SDS011;3355;52.882;8.430;2023-04-01T05:30:21;4.40;;;3.80;;
6638;SDS011;3355;52.882;8.430;2023-04-01T05:32:48;4.10;;;3.53;;
6638;SDS011;3355;52.882;8.430;2023-04-01T05:35:15;4.53;;;4.10;;
6638;SDS011;3355;52.882;8.430;2023-04-01T05:37:41;4.67;;;4.10;;
6638;SDS011;3355;52.882;8.430;2023-04-01T05:40:08;4.67;;;4.23;;
6638;SDS011;3355;52.882;8.430;2023-04-01T05:42:35;4.43;;;3.50;;
6638;SDS011;3355;52.882;8.430;2023-04-01T05:45:02;4.53;;;3.70;;
6638;SDS011;3355;52.882;8.430;2023-04-01T05:47:31;4.07;;;3.67;;
6638;SDS011;3355;52.882;8.430;2023-04-01T05:49:58;4.50;;;3.40;;
6638;SDS011;3355;52.882;8.430;2023-04-01T05:52:24;3.17;;;2.87;;
6638;SDS011;3355;52.882;8.430;2023-04-01T05:54:52;4.23;;;3.10;;
6638;SDS011;3355;52.882;8.430;2023-04-01T05:57:18;5.30;;;3.40;;
6638;SDS011;3355;52.882;8.430;2023-04-01T05:59:45;3.83;;;3.10;;
6638;SDS011;3355;52.882;8.430;2023-04-01T06:02:12;5.27;;;3.00;;
6638;SDS011;3355;52.882;8.430;2023-04-01T06:04:41;3.20;;;2.80;;
6638;SDS011;3355;52.882;8.430;2023-04-01T06:07:10;2.97;;;2.40;;
6638;SDS011;3355;52.882;8.430;2023-04-01T06:09:38;5.50;;;2.97;;
6638;SDS011;3355;52.882;8.430;2023-04-01T06:12:17;3.30;;;2.90;;
6638;SDS011;3355;52.882;8.430;2023-04-01T06:15:01;4.30;;;2.70;;
6638;SDS011;3355;52.882;8.430;2023-04-01T06:17:40;3.03;;;2.30;;
6638;SDS011;3355;52.882;8.430;2023-04-01T06:20:26;4.10;;;2.50;;
6638;SDS011;3355;52.882;8.430;2023-04-01T06:23:04;3.67;;;2.00;;
6638;SDS011;3355;52.882;8.430;2023-04-01T06:25:43;5.00;;;2.70;;
6638;SDS011;3355;52.882;8.430;2023-04-01T06:28:42;3.20;;;2.57;;
6638;SDS011;3355;52.882;8.430;2023-04-01T06:31:25;5.03;;;2.50;;
6638;SDS011;3355;52.882;8.430;2023-04-01T06:36:55;2.73;;;2.00;;
6638;SDS011;3355;52.882;8.430;2023-04-01T06:39:49;2.43;;;2.10;;
6638;SDS011;3355;52.882;8.430;2023-04-01T06:42:26;3.87;;;2.30;;
6638;SDS011;3355;52.882;8.430;2023-04-01T06:45:02;2.97;;;2.50;;
6638;SDS011;3355;52.882;8.430;2023-04-01T06:47:37;3.60;;;2.40;;
6638;SDS011;3355;52.882;8.430;2023-04-01T06:50:12;2.87;;;2.30;;
6638;SDS011;3355;52.882;8.430;2023-04-01T06:52:51;2.93;;;2.20;;
6638;SDS011;3355;52.882;8.430;2023-04-01T06:55:27;3.40;;;2.10;;
6638;SDS011;3355;52.882;8.430;2023-04-01T06:58:00;2.10;;;1.80;;
6638;SDS011;3355;52.882;8.430;2023-04-01T07:00:31;3.90;;;2.50;;
6638;SDS011;3355;52.882;8.430;2023-04-01T07:03:04;3.77;;;2.00;;
6638;SDS011;3355;52.882;8.430;2023-04-01T07:05:33;3.13;;;1.80;;
6638;SDS011;3355;52.882;8.430;2023-04-01T07:08:04;8.80;;;3.20;;
6638;SDS011;3355;52.882;8.430;2023-04-01T07:10:35;4.40;;;2.03;;
6638;SDS011;3355;52.882;8.430;2023-04-01T07:13:11;2.40;;;2.20;;
6638;SDS011;3355;52.882;8.430;2023-04-01T07:15:43;2.53;;;2.07;;
6638;SDS011;3355;52.882;8.430;2023-04-01T07:18:12;2.73;;;1.93;;
6638;SDS011;3355;52.882;8.430;2023-04-01T07:20:42;2.53;;;2.00;;
6638;SDS011;3355;52.882;8.430;2023-04-01T07:23:15;4.20;;;2.40;;
6638;SDS011;3355;52.882;8.430;2023-04-01T07:25:47;2.90;;;1.97;;
6638;SDS011;3355;52.882;8.430;2023-04-01T07:28:18;1.90;;;1.63;;
6638;SDS011;3355;52.882;8.430;2023-04-01T07:30:47;2.30;;;1.70;;
6638;SDS011;3355;52.882;8.430;2023-04-01T07:33:33;2.70;;;1.90;;
6638;SDS011;3355;52.882;8.430;2023-04-01T07:36:05;2.87;;;2.03;;
6638;SDS011;3355;52.882;8.430;2023-04-01T07:38:40;2.70;;;1.70;;
6638;SDS011;3355;52.882;8.430;2023-04-01T07:41:12;2.43;;;1.47;;
6638;SDS011;3355;52.882;8.430;2023-04-01T07:43:49;2.13;;;1.63;;
6638;SDS011;3355;52.882;8.430;2023-04-01T07:46:29;4.33;;;2.17;;
6638;SDS011;3355;52.882;8.430;2023-04-01T07:49:21;2.50;;;2.30;;
6638;SDS011;3355;52.882;8.430;2023-04-01T07:51:52;1.90;;;1.70;;
6638;SDS011;3355;52.882;8.430;2023-04-01T07:54:29;2.70;;;2.50;;
6638;SDS011;3355;52.882;8.430;2023-04-01T07:57:02;2.60;;;2.30;;
6638;SDS011;3355;52.882;8.430;2023-04-01T07:59:33;2.20;;;2.00;;
6638;SDS011;3355;52.882;8.430;2023-04-01T08:02:06;2.50;;;2.30;;
6638;SDS011;3355;52.882;8.430;2023-04-01T08:04:41;2.30;;;1.73;;
6638;SDS011;3355;52.882;8.430;2023-04-01T08:07:15;2.20;;;2.00;;
6638;SDS011;3355;52.882;8.430;2023-04-01T08:09:58;3.33;;;2.30;;
6638;SDS011;3355;52.882;8.430;2023-04-01T08:12:31;2.33;;;1.67;;
6638;SDS011;3355;52.882;8.430;2023-04-01T08:15:07;2.80;;;2.20;;
6638;SDS011;3355;52.882;8.430;2023-04-01T08:17:40;2.50;;;2.30;;
6638;SDS011;3355;52.882;8.430;2023-04-01T08:20:14;3.10;;;2.30;;
6638;SDS011;3355;52.882;8.430;2023-04-01T08:22:50;2.50;;;2.30;;
6638;SDS011;3355;52.882;8.430;2023-04-01T08:25:21;2.30;;;2.10;;
6638;SDS011;3355;52.882;8.430;2023-04-01T08:28:01;2.30;;;2.10;;
6638;SDS011;3355;52.882;8.430;2023-04-01T08:30:33;2.53;;;2.33;;
6638;SDS011;3355;52.882;8.430;2023-04-01T08:33:15;3.40;;;2.47;;
6638;SDS011;3355;52.882;8.430;2023-04-01T08:35:56;2.67;;;2.47;;
6638;SDS011;3355;52.882;8.430;2023-04-01T08:38:27;3.10;;;2.67;;
6638;SDS011;3355;52.882;8.430;2023-04-01T08:44:20;2.80;;;2.30;;
6638;SDS011;3355;52.882;8.430;2023-04-01T08:50:08;3.10;;;2.27;;
6638;SDS011;3355;52.882;8.430;2023-04-01T08:52:52;4.27;;;2.03;;
6638;SDS011;3355;52.882;8.430;2023-04-01T08:55:34;2.23;;;2.00;;
6638;SDS011;3355;52.882;8.430;2023-04-01T09:01:01;2.70;;;2.50;;
6638;SDS011;3355;52.882;8.430;2023-04-01T09:03:41;2.57;;;2.37;;
6638;SDS011;3355;52.882;8.430;2023-04-01T09:06:29;3.70;;;3.20;;
6638;SDS011;3355;52.882;8.430;2023-04-01T09:15:18;2.20;;;2.00;;
6638;SDS011;3355;52.882;8.430;2023-04-01T09:18:15;2.87;;;2.67;;
6638;SDS011;3355;52.882;8.430;2023-04-01T09:23:47;4.23;;;2.43;;
6638;SDS011;3355;52.882;8.430;2023-04-01T09:26:33;2.90;;;2.20;;
6638;SDS011;3355;52.882;8.430;2023-04-01T09:29:12;2.60;;;2.40;;
6638;SDS011;3355;52.882;8.430;2023-04-01T09:37:26;2.50;;;2.30;;
6638;SDS011;3355;52.882;8.430;2023-04-01T09:40:14;2.40;;;2.20;;
6638;SDS011;3355;52.882;8.430;2023-04-01T09:42:48;2.50;;;2.30;;
6638;SDS011;3355;52.882;8.430;2023-04-01T09:45:35;2.50;;;2.30;;
6638;SDS011;3355;52.882;8.430;2023-04-01T09:48:11;2.40;;;2.20;;
6638;SDS011;3355;52.882;8.430;2023-04-01T09:50:48;1.90;;;1.73;;
6638;SDS011;3355;52.882;8.430;2023-04-01T09:53:24;3.50;;;1.80;;
6638;SDS011;3355;52.882;8.430;2023-04-01T09:56:01;2.03;;;1.60;;
6638;SDS011;3355;52.882;8.430;2023-04-01T09:58:51;2.00;;;1.80;;
6638;SDS011;3355;52.882;8.430;2023-04-01T10:02:14;2.07;;;1.87;;
6638;SDS011;3355;52.882;8.430;2023-04-01T10:05:27;1.87;;;1.67;;
6638;SDS011;3355;52.882;8.430;2023-04-01T10:20:31;1.40;;;1.30;;
6638;SDS011;3355;52.882;8.430;2023-04-01T10:23:24;1.37;;;0.97;;
6638;SDS011;3355;52.882;8.430;2023-04-01T10:26:19;1.50;;;1.17;;
6638;SDS011;3355;52.882;8.430;2023-04-01T10:29:09;1.40;;;0.90;;
6638;SDS011;3355;52.882;8.430;2023-04-01T10:32:01;1.33;;;1.00;;
6638;SDS011;3355;52.882;8.430;2023-04-01T10:34:56;1.23;;;0.90;;
6638;SDS011;3355;52.882;8.430;2023-04-01T10:37:40;1.73;;;1.10;;
6638;SDS011;3355;52.882;8.430;2023-04-01T10:43:28;1.97;;;0.90;;
6638;SDS011;3355;52.882;8.430;2023-04-01T10:49:41;1.40;;;0.90;;
6638;SDS011;3355;52.882;8.430;2023-04-01T10:55:34;1.50;;;1.40;;
6638;SDS011;3355;52.882;8.430;2023-04-01T10:58:10;1.70;;;1.50;;
6638;SDS011;3355;52.882;8.430;2023-04-01T11:03:41;1.63;;;1.40;;
6638;SDS011;3355;52.882;8.430;2023-04-01T11:09:26;1.77;;;1.20;;
6638;SDS011;3355;52.882;8.430;2023-04-01T11:22:00;1.60;;;1.27;;
6638;SDS011;3355;52.882;8.430;2023-04-01T11:24:54;2.87;;;1.60;;
6638;SDS011;3355;52.882;8.430;2023-04-01T11:27:38;1.87;;;1.53;;
6638;SDS011;3355;52.882;8.430;2023-04-01T11:30:28;1.83;;;1.47;;
6638;SDS011;3355;52.882;8.430;2023-04-01T11:33:17;3.30;;;1.93;;
6638;SDS011;3355;52.882;8.430;2023-04-01T11:35:50;2.27;;;1.80;;
6638;SDS011;3355;52.882;8.430;2023-04-01T11:38:41;2.80;;;1.60;;
6638;SDS011;3355;52.882;8.430;2023-04-01T11:41:15;2.03;;;1.77;;
6638;SDS011;3355;52.882;8.430;2023-04-01T11:43:54;1.87;;;1.43;;
6638;SDS011;3355;52.882;8.430;2023-04-01T11:46:30;3.30;;;1.63;;
6638;SDS011;3355;52.882;8.430;2023-04-01T11:49:02;1.73;;;1.30;;
6638;SDS011;3355;52.882;8.430;2023-04-01T11:51:44;1.60;;;0.80;;
6638;SDS011;3355;52.882;8.430;2023-04-01T11:54:26;1.10;;;0.80;;
6638;SDS011;3355;52.882;8.430;2023-04-01T11:57:20;1.40;;;0.90;;
6638;SDS011;3355;52.882;8.430;2023-04-01T12:00:13;1.17;;;0.80;;
6638;SDS011;3355;52.882;8.430;2023-04-01T12:02:50;1.10;;;0.60;;
6638;SDS011;3355;52.882;8.430;2023-04-01T12:05:34;2.53;;;1.10;;
6638;SDS011;3355;52.882;8.430;2023-04-01T12:08:10;1.40;;;0.80;;
6638;SDS011;3355;52.882;8.430;2023-04-01T12:10:48;1.10;;;0.70;;
6638;SDS011;3355;52.882;8.430;2023-04-01T12:13:25;1.90;;;1.10;;
6638;SDS011;3355;52.882;8.430;2023-04-01T12:16:04;1.60;;;1.03;;
6638;SDS011;3355;52.882;8.430;2023-04-01T12:18:41;1.10;;;0.70;;
6638;SDS011;3355;52.882;8.430;2023-04-01T12:21:14;2.37;;;1.33;;
6638;SDS011;3355;52.882;8.430;2023-04-01T12:23:57;1.30;;;1.00;;
6638;SDS011;3355;52.882;8.430;2023-04-01T12:26:41;1.20;;;0.80;;
6638;SDS011;3355;52.882;8.430;2023-04-01T12:29:18;1.30;;;0.70;;
6638;SDS011;3355;52.882;8.430;2023-04-01T12:31:58;1.40;;;0.80;;
6638;SDS011;3355;52.882;8.430;2023-04-01T12:37:27;1.40;;;0.90;;
6638;SDS011;3355;52.882;8.430;2023-04-01T12:40:02;1.10;;;0.67;;
6638;SDS011;3355;52.882;8.430;2023-04-01T12:45:45;1.40;;;1.00;;
6638;SDS011;3355;52.882;8.430;2023-04-01T12:48:23;1.77;;;1.00;;
6638;SDS011;3355;52.882;8.430;2023-04-01T12:51:25;1.50;;;0.97;;
6638;SDS011;3355;52.882;8.430;2023-04-01T12:54:21;1.57;;;1.17;;
6638;SDS011;3355;52.882;8.430;2023-04-01T12:57:10;1.57;;;1.20;;
6638;SDS011;3355;52.882;8.430;2023-04-01T12:59:50;1.37;;;0.97;;
6638;SDS011;3355;52.882;8.430;2023-04-01T13:02:27;1.40;;;1.00;;
6638;SDS011;3355;52.882;8.430;2023-04-01T13:05:20;1.20;;;0.80;;
6638;SDS011;3355;52.882;8.430;2023-04-01T13:08:16;1.53;;;1.20;;
6638;SDS011;3355;52.882;8.430;2023-04-01T13:10:56;1.90;;;1.10;;
6638;SDS011;3355;52.882;8.430;2023-04-01T13:13:35;3.70;;;1.70;;
6638;SDS011;3355;52.882;8.430;2023-04-01T13:16:15;2.47;;;1.83;;
6638;SDS011;3355;52.882;8.430;2023-04-01T13:18:49;1.40;;;1.10;;
6638;SDS011;3355;52.882;8.430;2023-04-01T13:21:26;2.10;;;1.50;;
6638;SDS011;3355;52.882;8.430;2023-04-01T13:24:00;2.17;;;1.60;;
6638;SDS011;3355;52.882;8.430;2023-04-01T13:26:34;1.50;;;1.10;;
6638;SDS011;3355;52.882;8.430;2023-04-01T13:29:04;1.47;;;0.97;;
6638;SDS011;3355;52.882;8.430;2023-04-01T13:31:44;1.70;;;1.40;;
6638;SDS011;3355;52.882;8.430;2023-04-01T13:34:25;1.43;;;1.17;;
6638;SDS011;3355;52.882;8.430;2023-04-01T13:37:08;2.23;;;1.20;;
6638;SDS011;3355;52.882;8.430;2023-04-01T13:39:44;1.63;;;1.23;;
6638;SDS011;3355;52.882;8.430;2023-04-01T13:42:21;1.73;;;1.00;;
6638;SDS011;3355;52.882;8.430;2023-04-01T13:44:54;1.40;;;1.13;;
6638;SDS011;3355;52.882;8.430;2023-04-01T13:50:31;1.50;;;1.00;;
6638;SDS011;3355;52.882;8.430;2023-04-01T13:53:16;1.70;;;1.10;;
6638;SDS011;3355;52.882;8.430;2023-04-01T13:56:04;2.00;;;0.93;;
6638;SDS011;3355;52.882;8.430;2023-04-01T13:58:38;1.37;;;0.80;;
6638;SDS011;3355;52.882;8.430;2023-04-01T14:01:26;1.70;;;1.10;;
6638;SDS011;3355;52.882;8.430;2023-04-01T14:04:06;1.30;;;1.00;;
6638;SDS011;3355;52.882;8.430;2023-04-01T14:06:57;1.77;;;1.10;;
6638;SDS011;3355;52.882;8.430;2023-04-01T14:09:42;2.00;;;1.33;;
6638;SDS011;3355;52.882;8.430;2023-04-01T14:12:13;1.57;;;0.90;;
6638;SDS011;3355;52.882;8.430;2023-04-01T14:14:56;1.10;;;0.70;;
6638;SDS011;3355;52.882;8.430;2023-04-01T14:17:35;2.43;;;1.33;;
6638;SDS011;3355;52.882;8.430;2023-04-01T14:20:31;1.60;;;1.10;;
6638;SDS011;3355;52.882;8.430;2023-04-01T14:28:52;1.40;;;1.00;;
6638;SDS011;3355;52.882;8.430;2023-04-01T14:31:27;1.60;;;1.00;;
6638;SDS011;3355;52.882;8.430;2023-04-01T14:33:59;1.57;;;1.00;;
6638;SDS011;3355;52.882;8.430;2023-04-01T14:36:43;1.60;;;1.10;;
6638;SDS011;3355;52.882;8.430;2023-04-01T14:39:33;2.07;;;1.37;;
6638;SDS011;3355;52.882;8.430;2023-04-01T14:42:20;2.03;;;1.07;;
6638;SDS011;3355;52.882;8.430;2023-04-01T14:45:02;1.90;;;1.47;;
6638;SDS011;3355;52.882;8.430;2023-04-01T14:47:46;1.23;;;0.80;;
6638;SDS011;3355;52.882;8.430;2023-04-01T14:50:15;1.20;;;0.80;;
6638;SDS011;3355;52.882;8.430;2023-04-01T14:52:46;1.60;;;1.00;;
6638;SDS011;3355;52.882;8.430;2023-04-01T14:55:28;1.47;;;1.00;;
6638;SDS011;3355;52.882;8.430;2023-04-01T14:58:00;1.77;;;1.07;;
6638;SDS011;3355;52.882;8.430;2023-04-01T15:00:40;1.30;;;0.80;;
6638;SDS011;3355;52.882;8.430;2023-04-01T15:03:13;1.30;;;0.70;;
6638;SDS011;3355;52.882;8.430;2023-04-01T15:05:46;1.27;;;0.80;;
6638;SDS011;3355;52.882;8.430;2023-04-01T15:08:19;2.10;;;1.40;;
6638;SDS011;3355;52.882;8.430;2023-04-01T15:13:53;1.67;;;1.03;;
6638;SDS011;3355;52.882;8.430;2023-04-01T15:16:46;1.20;;;0.70;;
6638;SDS011;3355;52.882;8.430;2023-04-01T15:19:21;1.77;;;0.93;;
6638;SDS011;3355;52.882;8.430;2023-04-01T15:21:59;2.13;;;1.17;;
6638;SDS011;3355;52.882;8.430;2023-04-01T15:24:38;1.37;;;0.87;;
6638;SDS011;3355;52.882;8.430;2023-04-01T15:27:15;1.40;;;0.90;;
6638;SDS011;3355;52.882;8.430;2023-04-01T15:29:53;1.33;;;0.90;;
6638;SDS011;3355;52.882;8.430;2023-04-01T15:32:31;1.40;;;0.80;;
6638;SDS011;3355;52.882;8.430;2023-04-01T15:35:10;1.60;;;1.00;;
6638;SDS011;3355;52.882;8.430;2023-04-01T15:37:43;1.43;;;0.80;;
6638;SDS011;3355;52.882;8.430;2023-04-01T15:40:20;1.50;;;0.97;;
6638;SDS011;3355;52.882;8.430;2023-04-01T15:42:54;1.63;;;1.27;;
6638;SDS011;3355;52.882;8.430;2023-04-01T15:45:36;1.53;;;0.90;;
6638;SDS011;3355;52.882;8.430;2023-04-01T15:48:33;4.57;;;1.90;;
6638;SDS011;3355;52.882;8.430;2023-04-01T15:51:16;1.60;;;1.03;;
6638;SDS011;3355;52.882;8.430;2023-04-01T15:57:20;1.87;;;1.70;;
6638;SDS011;3355;52.882;8.430;2023-04-01T16:02:53;2.30;;;1.33;;
6638;SDS011;3355;52.882;8.430;2023-04-01T16:05:54;2.80;;;1.47;;
6638;SDS011;3355;52.882;8.430;2023-04-01T16:08:45;2.53;;;1.43;;
6638;SDS011;3355;52.882;8.430;2023-04-01T16:11:22;1.90;;;1.40;;
6638;SDS011;3355;52.882;8.430;2023-04-01T16:13:58;2.80;;;1.70;;
6638;SDS011;3355;52.882;8.430;2023-04-01T16:16:36;3.30;;;2.50;;
6638;SDS011;3355;52.882;8.430;2023-04-01T16:19:17;3.97;;;2.30;;
6638;SDS011;3355;52.882;8.430;2023-04-01T16:21:53;2.87;;;1.90;;
6638;SDS011;3355;52.882;8.430;2023-04-01T16:24:24;3.17;;;2.10;;
6638;SDS011;3355;52.882;8.430;2023-04-01T16:27:02;3.37;;;1.57;;
6638;SDS011;3355;52.882;8.430;2023-04-01T16:29:46;2.53;;;1.60;;
6638;SDS011;3355;52.882;8.430;2023-04-01T16:32:34;2.47;;;1.73;;
6638;SDS011;3355;52.882;8.430;2023-04-01T16:35:10;2.27;;;1.80;;
6638;SDS011;3355;52.882;8.430;2023-04-01T16:37:47;1.90;;;1.23;;
6638;SDS011;3355;52.882;8.430;2023-04-01T16:40:24;2.10;;;1.80;;
6638;SDS011;3355;52.882;8.430;2023-04-01T16:43:04;2.13;;;1.60;;
6638;SDS011;3355;52.882;8.430;2023-04-01T16:45:35;2.40;;;1.50;;
6638;SDS011;3355;52.882;8.430;2023-04-01T16:48:06;2.93;;;2.00;;
6638;SDS011;3355;52.882;8.430;2023-04-01T16:50:49;2.20;;;1.83;;
6638;SDS011;3355;52.882;8.430;2023-04-01T16:53:24;2.90;;;1.90;;
6638;SDS011;3355;52.882;8.430;2023-04-01T16:56:38;2.23;;;1.87;;
6638;SDS011;3355;52.882;8.430;2023-04-01T16:59:20;2.73;;;1.80;;
6638;SDS011;3355;52.882;8.430;2023-04-01T17:01:53;2.60;;;2.17;;
6638;SDS011;3355;52.882;8.430;2023-04-01T17:04:25;2.40;;;1.80;;
6638;SDS011;3355;52.882;8.430;2023-04-01T17:06:58;2.27;;;1.40;;
6638;SDS011;3355;52.882;8.430;2023-04-01T17:12:20;3.23;;;1.90;;
6638;SDS011;3355;52.882;8.430;2023-04-01T17:14:52;2.00;;;1.43;;
6638;SDS011;3355;52.882;8.430;2023-04-01T17:17:30;1.97;;;1.53;;
6638;SDS011;3355;52.882;8.430;2023-04-01T17:20:08;3.37;;;1.97;;
6638;SDS011;3355;52.882;8.430;2023-04-01T17:22:54;2.53;;;1.70;;
6638;SDS011;3355;52.882;8.430;2023-04-01T17:25:30;4.50;;;2.20;;
6638;SDS011;3355;52.882;8.430;2023-04-01T17:28:16;3.23;;;1.80;;
6638;SDS011;3355;52.882;8.430;2023-04-01T17:30:52;2.90;;;1.43;;
6638;SDS011;3355;52.882;8.430;2023-04-01T17:36:30;1.90;;;1.43;;
6638;SDS011;3355;52.882;8.430;2023-04-01T17:41:51;2.90;;;2.50;;
6638;SDS011;3355;52.882;8.430;2023-04-01T17:44:31;2.07;;;1.60;;
6638;SDS011;3355;52.882;8.430;2023-04-01T17:47:09;2.67;;;2.17;;
6638;SDS011;3355;52.882;8.430;2023-04-01T17:49:42;5.83;;;2.47;;
6638;SDS011;3355;52.882;8.430;2023-04-01T17:52:17;2.60;;;1.90;;